createdAt,value
2023-05-21T00:00:51.760Z,13.90
2023-05-21T00:03:18.512Z,15.13
2023-05-21T00:05:47.244Z,13.93
2023-05-21T00:08:14.272Z,12.20
2023-05-21T00:10:41.079Z,13.40
2023-05-21T00:13:09.167Z,12.73
2023-05-21T00:15:36.469Z,12.38
2023-05-21T00:18:03.727Z,13.75
2023-05-21T00:20:32.449Z,13.50
2023-05-21T00:23:00.044Z,13.73
2023-05-21T00:25:26.610Z,12.05
2023-05-21T00:27:54.957Z,15.13
2023-05-21T00:30:21.731Z,13.95
2023-05-21T00:32:48.454Z,13.02
2023-05-21T00:35:15.188Z,13.50
2023-05-21T00:37:42.240Z,13.90
2023-05-21T00:40:09.472Z,14.00
2023-05-21T00:42:39.346Z,13.60
2023-05-21T00:45:07.187Z,12.40
2023-05-21T00:47:35.202Z,13.70
2023-05-21T00:50:03.772Z,14.75
2023-05-21T00:52:30.698Z,14.25
2023-05-21T00:54:57.321Z,12.32
2023-05-21T00:57:25.826Z,12.20
2023-05-21T00:59:53.410Z,12.27
2023-05-21T01:02:20.049Z,13.77
2023-05-21T01:04:46.748Z,12.15
2023-05-21T01:07:14.643Z,12.82
2023-05-21T01:09:42.572Z,12.88
2023-05-21T01:12:10.126Z,15.65
2023-05-21T01:14:37.808Z,13.25
2023-05-21T01:17:06.428Z,13.95
2023-05-21T01:19:35.636Z,12.48
2023-05-21T01:22:07.919Z,12.52
2023-05-21T01:24:35.284Z,13.35
2023-05-21T01:27:03.633Z,15.60
2023-05-21T01:29:30.306Z,13.73
2023-05-21T01:32:06.291Z,14.10
2023-05-21T01:34:55.112Z,12.80
2023-05-21T01:37:32.483Z,12.98
2023-05-21T01:40:13.394Z,13.57
2023-05-21T01:42:44.664Z,14.75
2023-05-21T01:45:12.337Z,13.98
2023-05-21T01:47:40.530Z,12.95
2023-05-21T01:50:08.471Z,13.48
2023-05-21T01:52:35.978Z,13.15
2023-05-21T01:55:03.725Z,13.82
2023-05-21T01:57:30.498Z,13.38
2023-05-21T01:59:58.001Z,12.85
2023-05-21T02:02:24.763Z,14.25
2023-05-21T02:04:51.658Z,12.60
2023-05-21T02:07:18.817Z,12.50
2023-05-21T02:09:45.617Z,12.82
2023-05-21T02:12:12.365Z,13.57
2023-05-21T02:14:39.310Z,14.02
2023-05-21T02:17:06.115Z,14.73
2023-05-21T02:19:32.884Z,13.05
2023-05-21T02:21:59.702Z,16.20
2023-05-21T02:24:26.372Z,14.32
2023-05-21T02:26:53.098Z,13.02
2023-05-21T02:29:19.799Z,14.45
2023-05-21T02:31:46.454Z,12.88
2023-05-21T02:34:13.773Z,16.15
2023-05-21T02:36:41.724Z,13.52
2023-05-21T02:39:08.481Z,12.13
2023-05-21T02:41:35.339Z,13.18
2023-05-21T02:44:02.036Z,11.68
2023-05-21T02:46:28.841Z,14.48
2023-05-21T02:48:55.568Z,11.95
2023-05-21T02:51:22.272Z,12.30
2023-05-21T02:53:48.994Z,12.30
2023-05-21T02:56:15.982Z,11.45
2023-05-21T02:58:42.642Z,13.07
2023-05-21T03:01:09.437Z,13.60
2023-05-21T03:03:36.433Z,11.60
2023-05-21T03:06:03.282Z,11.82
2023-05-21T03:08:29.993Z,12.63
2023-05-21T03:10:56.846Z,18.25
2023-05-21T03:13:23.568Z,11.50
2023-05-21T03:15:50.279Z,12.63
2023-05-21T03:18:17.125Z,12.30
2023-05-21T03:20:46.647Z,11.35
2023-05-21T03:23:16.397Z,12.55
2023-05-21T03:25:43.688Z,12.43
2023-05-21T03:28:10.521Z,13.75
2023-05-21T03:30:38.425Z,14.02
2023-05-21T03:33:06.623Z,13.00
2023-05-21T03:35:33.557Z,12.02
2023-05-21T03:38:00.352Z,12.82
2023-05-21T03:40:27.032Z,12.52
2023-05-21T03:42:53.765Z,14.05
2023-05-21T03:45:20.568Z,12.07
2023-05-21T03:47:48.954Z,12.30
2023-05-21T03:50:15.825Z,10.20
2023-05-21T03:52:42.576Z,15.30
2023-05-21T03:55:09.755Z,13.10
2023-05-21T03:57:37.509Z,14.45
2023-05-21T04:00:05.592Z,12.98
2023-05-21T04:02:32.555Z,12.45
2023-05-21T04:04:59.498Z,15.00
2023-05-21T04:07:27.202Z,15.85
2023-05-21T04:09:53.945Z,12.85
2023-05-21T04:12:20.782Z,12.63
2023-05-21T04:14:47.568Z,13.07
2023-05-21T04:17:14.378Z,11.85
2023-05-21T04:19:42.139Z,14.00
2023-05-21T04:22:10.714Z,13.23
2023-05-21T04:24:38.283Z,13.38
2023-05-21T04:27:06.085Z,12.23
2023-05-21T04:29:32.888Z,13.27
2023-05-21T04:31:59.639Z,11.43
2023-05-21T04:34:26.323Z,10.48
2023-05-21T04:36:54.072Z,11.70
2023-05-21T04:39:21.070Z,11.95
2023-05-21T04:41:48.533Z,13.00
2023-05-21T04:44:15.433Z,12.98
2023-05-21T04:46:42.862Z,14.30
2023-05-21T04:49:10.340Z,12.57
2023-05-21T04:51:40.358Z,13.88
2023-05-21T04:54:07.624Z,12.18
2023-05-21T04:56:34.292Z,14.15
2023-05-21T04:59:01.915Z,13.10
2023-05-21T05:01:29.752Z,15.50
2023-05-21T05:03:56.673Z,14.85
2023-05-21T05:06:25.934Z,12.88
2023-05-21T05:08:52.689Z,13.73
2023-05-21T05:11:22.543Z,17.40
2023-05-21T05:13:49.218Z,14.75
2023-05-21T05:16:18.595Z,12.75
2023-05-21T05:18:45.370Z,14.90
2023-05-21T05:21:12.096Z,13.57
2023-05-21T05:23:38.797Z,12.00
2023-05-21T05:26:05.634Z,13.50
2023-05-21T05:28:32.316Z,13.32
2023-05-21T05:30:59.041Z,14.07
2023-05-21T05:33:26.168Z,13.63
2023-05-21T05:35:53.090Z,14.93
2023-05-21T05:38:19.776Z,14.88
2023-05-21T05:40:46.531Z,13.50
2023-05-21T05:43:13.196Z,14.70
2023-05-21T05:45:40.072Z,16.00
2023-05-21T05:48:07.057Z,12.60
2023-05-21T05:50:33.881Z,14.18
2023-05-21T05:53:00.605Z,14.10
2023-05-21T05:55:27.372Z,14.32
2023-05-21T05:57:54.180Z,18.00
2023-05-21T06:00:21.076Z,13.05
2023-05-21T06:02:48.366Z,13.82
2023-05-21T06:05:15.497Z,15.93
2023-05-21T06:07:42.518Z,13.43
2023-05-21T06:10:09.762Z,13.25
2023-05-21T06:12:36.742Z,14.80
2023-05-21T06:15:03.902Z,14.82
2023-05-21T06:17:31.871Z,15.20
2023-05-21T06:19:58.602Z,12.20
2023-05-21T06:22:25.802Z,11.95
2023-05-21T06:24:52.688Z,14.88
2023-05-21T06:27:19.463Z,12.50
2023-05-21T06:29:46.182Z,11.88
2023-05-21T06:32:12.882Z,14.05
2023-05-21T06:34:39.571Z,12.80
2023-05-21T06:37:06.213Z,12.40
2023-05-21T06:39:32.945Z,14.27
2023-05-21T06:41:59.662Z,11.30
2023-05-21T06:44:26.341Z,11.88
2023-05-21T06:46:52.993Z,12.73
2023-05-21T06:49:19.688Z,13.07
2023-05-21T06:51:46.494Z,13.18
2023-05-21T06:54:13.298Z,12.27
2023-05-21T06:56:40.647Z,12.63
2023-05-21T06:59:07.380Z,13.68
2023-05-21T07:01:34.583Z,12.80
2023-05-21T07:04:01.290Z,11.88
2023-05-21T07:06:27.988Z,11.98
2023-05-21T07:08:54.685Z,11.43
2023-05-21T07:11:21.677Z,14.70
2023-05-21T07:13:48.445Z,13.82
2023-05-21T07:16:17.970Z,11.68
2023-05-21T07:18:44.766Z,14.18
2023-05-21T07:21:11.640Z,12.80
2023-05-21T07:23:38.363Z,11.10
2023-05-21T07:26:05.727Z,11.43
2023-05-21T07:28:32.391Z,11.80
2023-05-21T07:30:59.229Z,14.20
2023-05-21T07:33:26.070Z,11.13
2023-05-21T07:35:52.773Z,11.68
2023-05-21T07:38:19.502Z,12.07
2023-05-21T07:40:46.196Z,11.05
2023-05-21T07:43:13.588Z,10.25
2023-05-21T07:45:40.280Z,9.05
2023-05-21T07:48:07.184Z,10.40
2023-05-21T07:50:34.040Z,9.93
2023-05-21T07:53:00.840Z,9.52
2023-05-21T07:55:27.545Z,8.68
2023-05-21T07:57:54.246Z,9.30
2023-05-21T08:00:23.700Z,11.00
2023-05-21T08:02:52.513Z,11.25
2023-05-21T08:05:19.982Z,10.27
2023-05-21T08:07:47.159Z,13.38
2023-05-21T08:10:13.935Z,11.45
2023-05-21T08:12:40.783Z,9.52
2023-05-21T08:15:08.023Z,10.63
2023-05-21T08:17:34.849Z,9.73
2023-05-21T08:20:02.102Z,9.35
2023-05-21T08:22:28.798Z,11.45
2023-05-21T08:24:55.828Z,10.30
2023-05-21T08:27:22.592Z,13.13
2023-05-21T08:29:49.284Z,10.40
2023-05-21T08:32:16.243Z,9.38
2023-05-21T08:34:43.113Z,9.57
2023-05-21T08:37:09.884Z,10.75
2023-05-21T08:39:36.655Z,10.15
2023-05-21T08:42:38.890Z,10.00
2023-05-21T08:45:09.087Z,10.48
2023-05-21T08:47:37.189Z,10.38
2023-05-21T08:50:05.250Z,10.43
2023-05-21T08:52:32.712Z,8.32
2023-05-21T08:55:00.551Z,9.35
2023-05-21T08:57:28.479Z,9.63
2023-05-21T08:59:55.238Z,9.05
2023-05-21T09:02:22.140Z,11.20
2023-05-21T09:04:50.274Z,11.27
2023-05-21T09:07:18.098Z,10.32
2023-05-21T09:09:53.437Z,11.15
2023-05-21T09:12:20.498Z,9.35
2023-05-21T09:14:48.106Z,8.73
2023-05-21T09:17:15.397Z,10.45
2023-05-21T09:20:16.416Z,9.10
2023-05-21T09:22:45.395Z,9.52
2023-05-21T09:25:16.371Z,9.63
2023-05-21T09:27:43.726Z,8.52
2023-05-21T09:30:22.608Z,9.55
2023-05-21T09:32:58.259Z,10.30
2023-05-21T09:35:25.062Z,10.98
2023-05-21T09:37:53.264Z,9.25
2023-05-21T09:40:21.475Z,10.00
2023-05-21T09:42:51.814Z,10.20
2023-05-21T09:45:25.674Z,10.23
2023-05-21T09:47:53.931Z,10.43
2023-05-21T09:50:27.023Z,10.65
2023-05-21T09:52:55.543Z,10.65
2023-05-21T09:55:23.279Z,9.88
2023-05-21T09:57:51.064Z,9.52
2023-05-21T10:00:24.300Z,8.70
2023-05-21T10:02:55.266Z,11.77
2023-05-21T10:05:30.669Z,10.18
2023-05-21T10:08:02.838Z,9.70
2023-05-21T10:10:32.251Z,11.00
2023-05-21T10:13:08.979Z,9.63
2023-05-21T10:15:41.787Z,10.68
2023-05-21T10:18:10.472Z,10.45
2023-05-21T10:20:38.475Z,8.75
2023-05-21T10:23:05.595Z,9.45
2023-05-21T10:25:32.602Z,9.27
2023-05-21T10:27:59.435Z,8.45
2023-05-21T10:30:26.157Z,8.88
2023-05-21T10:32:55.866Z,10.70
2023-05-21T10:35:23.400Z,9.65
2023-05-21T10:37:52.132Z,10.25
2023-05-21T10:40:25.559Z,10.43
2023-05-21T10:43:19.725Z,8.77
2023-05-21T10:46:24.646Z,15.10
2023-05-21T10:49:24.243Z,8.88
2023-05-21T10:52:18.340Z,9.95
2023-05-21T10:57:54.169Z,9.25
2023-05-21T11:00:21.312Z,16.35
2023-05-21T11:02:53.151Z,10.70
2023-05-21T11:05:42.272Z,8.85
2023-05-21T11:08:26.406Z,8.70
2023-05-21T11:10:54.951Z,8.02
2023-05-21T11:13:22.182Z,9.77
2023-05-21T11:15:57.928Z,7.95
2023-05-21T11:18:47.616Z,8.27
2023-05-21T11:21:16.068Z,7.93
2023-05-21T11:23:58.669Z,7.45
2023-05-21T11:26:52.270Z,9.35
2023-05-21T11:29:19.963Z,9.15
2023-05-21T11:31:48.690Z,7.65
2023-05-21T11:34:28.824Z,7.22
2023-05-21T11:37:17.824Z,7.80
2023-05-21T11:39:45.499Z,6.80
2023-05-21T11:42:12.310Z,7.50
2023-05-21T11:44:46.938Z,7.88
2023-05-21T11:47:19.259Z,8.65
2023-05-21T11:49:46.710Z,10.27
2023-05-21T11:52:14.670Z,7.53
2023-05-21T11:54:46.559Z,7.55
2023-05-21T11:57:17.828Z,8.35
2023-05-21T11:59:48.921Z,7.68
2023-05-21T12:02:18.014Z,6.85
2023-05-21T12:04:46.934Z,7.03
2023-05-21T12:07:15.396Z,7.90
2023-05-21T12:09:42.661Z,8.32
2023-05-21T12:12:10.406Z,8.32
2023-05-21T12:14:37.870Z,7.97
2023-05-21T12:17:05.628Z,7.55
2023-05-21T12:19:36.244Z,8.63
2023-05-21T12:22:04.215Z,8.63
2023-05-21T12:24:31.660Z,7.70
2023-05-21T12:26:59.717Z,7.90
2023-05-21T12:29:47.257Z,7.32
2023-05-21T12:32:15.068Z,8.48
2023-05-21T12:34:46.847Z,8.50
2023-05-21T12:37:35.860Z,8.05
2023-05-21T12:40:11.138Z,7.57
2023-05-21T12:42:40.213Z,7.13
2023-05-21T12:45:08.331Z,8.52
2023-05-21T12:47:35.619Z,9.10
2023-05-21T12:50:04.154Z,7.30
2023-05-21T12:52:31.213Z,7.63
2023-05-21T12:54:58.701Z,7.65
2023-05-21T12:57:28.374Z,8.85
2023-05-21T12:59:57.289Z,8.52
2023-05-21T13:02:32.897Z,7.07
2023-05-21T13:05:01.499Z,7.57
2023-05-21T13:07:30.347Z,8.50
2023-05-21T13:09:57.723Z,8.27
2023-05-21T13:12:26.657Z,7.88
2023-05-21T13:14:55.548Z,8.48
2023-05-21T13:17:23.142Z,8.45
2023-05-21T13:20:09.191Z,7.82
2023-05-21T13:22:43.941Z,7.38
2023-05-21T13:25:11.874Z,9.25
2023-05-21T13:27:39.682Z,8.50
2023-05-21T13:30:07.412Z,7.00
2023-05-21T13:32:34.611Z,7.82
2023-05-21T13:35:01.400Z,7.25
2023-05-21T13:37:28.312Z,10.70
2023-05-21T13:39:54.984Z,7.60
2023-05-21T13:42:21.783Z,9.32
2023-05-21T13:44:49.228Z,8.30
2023-05-21T13:47:16.407Z,7.28
2023-05-21T13:49:43.149Z,8.80
2023-05-21T13:52:10.033Z,7.55
2023-05-21T13:54:36.901Z,7.07
2023-05-21T13:57:03.980Z,7.22
2023-05-21T13:59:33.270Z,8.82
2023-05-21T14:02:00.763Z,7.85
2023-05-21T14:04:27.751Z,11.15
2023-05-21T14:06:54.441Z,6.38
2023-05-21T14:09:21.518Z,8.25
2023-05-21T14:11:48.246Z,8.00
2023-05-21T14:14:19.087Z,7.90
2023-05-21T14:16:50.496Z,7.45
2023-05-21T14:19:17.598Z,8.70
2023-05-21T14:21:44.784Z,7.05
2023-05-21T14:24:11.446Z,7.55
2023-05-21T14:26:40.983Z,7.95
2023-05-21T14:29:07.770Z,7.38
2023-05-21T14:31:34.480Z,6.95
2023-05-21T14:34:02.968Z,8.45
2023-05-21T14:36:29.905Z,8.18
2023-05-21T14:38:56.584Z,7.65
2023-05-21T14:41:27.209Z,7.70
2023-05-21T14:43:54.334Z,8.23
2023-05-21T14:46:21.749Z,7.10
2023-05-21T14:48:48.466Z,7.20
2023-05-21T14:51:15.165Z,9.23
2023-05-21T14:53:41.914Z,7.60
2023-05-21T14:56:08.753Z,7.07
2023-05-21T14:58:35.730Z,7.88
2023-05-21T15:01:04.407Z,7.38
2023-05-21T15:03:31.379Z,8.68
2023-05-21T15:05:58.729Z,7.82
2023-05-21T15:08:25.689Z,11.07
2023-05-21T15:10:52.490Z,8.43
2023-05-21T15:13:19.266Z,8.98
2023-05-21T15:15:46.245Z,8.05
2023-05-21T15:18:13.110Z,8.07
2023-05-21T15:20:39.863Z,7.78
2023-05-21T15:23:16.868Z,8.00
2023-05-21T15:25:44.740Z,9.05
2023-05-21T15:28:14.268Z,6.72
2023-05-21T15:30:40.929Z,8.75
2023-05-21T15:33:07.747Z,8.07
2023-05-21T15:35:37.978Z,10.02
2023-05-21T15:38:05.043Z,7.75
2023-05-21T15:40:32.238Z,9.40
2023-05-21T15:42:58.988Z,7.82
2023-05-21T15:45:25.831Z,8.75
2023-05-21T15:47:52.678Z,8.07
2023-05-21T15:50:19.488Z,9.48
2023-05-21T15:52:46.231Z,8.73
2023-05-21T15:55:14.362Z,7.10
2023-05-21T15:57:41.117Z,7.80
2023-05-21T16:00:10.124Z,8.23
2023-05-21T16:02:37.207Z,9.52
2023-05-21T16:05:04.175Z,7.93
2023-05-21T16:07:30.927Z,13.73
2023-05-21T16:09:57.801Z,9.23
2023-05-21T16:12:24.571Z,8.85
2023-05-21T16:14:51.332Z,10.40
2023-05-21T16:17:19.931Z,7.72
2023-05-21T16:19:47.760Z,9.88
2023-05-21T16:22:14.813Z,9.68
2023-05-21T16:24:41.495Z,9.85
2023-05-21T16:27:08.152Z,9.30
2023-05-21T16:29:34.850Z,9.40
2023-05-21T16:32:01.668Z,9.73
2023-05-21T16:34:28.480Z,12.65
2023-05-21T16:36:55.141Z,12.50
2023-05-21T16:39:22.038Z,10.77
2023-05-21T16:41:48.700Z,10.73
2023-05-21T16:44:15.400Z,9.70
2023-05-21T16:46:42.610Z,8.27
2023-05-21T16:49:09.380Z,8.65
2023-05-21T16:51:36.250Z,9.63
2023-05-21T16:54:04.812Z,9.18
2023-05-21T16:56:31.849Z,9.15
2023-05-21T16:58:58.612Z,9.13
2023-05-21T17:01:25.630Z,9.98
2023-05-21T17:03:53.196Z,11.85
2023-05-21T17:06:20.147Z,11.38
2023-05-21T17:08:47.327Z,8.60
2023-05-21T17:11:14.137Z,8.63
2023-05-21T17:13:41.117Z,10.93
2023-05-21T17:16:07.929Z,8.27
2023-05-21T17:18:34.742Z,7.28
2023-05-21T17:21:01.476Z,9.70
2023-05-21T17:23:28.148Z,8.50
2023-05-21T17:25:54.978Z,8.65
2023-05-21T17:28:21.901Z,9.15
2023-05-21T17:30:49.657Z,10.00
2023-05-21T17:33:16.763Z,8.40
2023-05-21T17:35:43.697Z,8.32
2023-05-21T17:38:10.561Z,10.73
2023-05-21T17:40:37.324Z,7.95
2023-05-21T17:43:05.182Z,7.97
2023-05-21T17:45:32.131Z,7.32
2023-05-21T17:48:00.376Z,9.95
2023-05-21T17:50:27.584Z,7.43
2023-05-21T17:52:54.241Z,9.10
2023-05-21T17:55:20.985Z,7.22
2023-05-21T17:57:47.725Z,8.23
2023-05-21T18:00:14.808Z,9.13
2023-05-21T18:02:41.582Z,8.35
2023-05-21T18:05:08.617Z,8.50
2023-05-21T18:07:35.867Z,8.63
2023-05-21T18:10:02.588Z,7.70
2023-05-21T18:12:29.325Z,9.45
2023-05-21T18:14:56.050Z,8.85
2023-05-21T18:17:22.901Z,12.32
2023-05-21T18:19:49.611Z,9.75
2023-05-21T18:22:16.389Z,9.52
2023-05-21T18:24:43.092Z,7.55
2023-05-21T18:27:09.803Z,8.88
2023-05-21T18:29:36.900Z,7.78
2023-05-21T18:32:04.185Z,9.05
2023-05-21T18:34:31.068Z,7.82
2023-05-21T18:36:58.902Z,8.02
2023-05-21T18:39:27.123Z,9.77
2023-05-21T18:42:11.494Z,10.95
2023-05-21T18:44:40.133Z,9.40
2023-05-21T18:47:07.902Z,9.23
2023-05-21T18:49:36.550Z,9.25
2023-05-21T18:52:04.440Z,9.15
2023-05-21T18:54:31.307Z,8.27
2023-05-21T18:57:00.533Z,10.02
2023-05-21T18:59:28.747Z,9.07
2023-05-21T19:01:55.690Z,8.93
2023-05-21T19:04:22.649Z,10.55
2023-05-21T19:06:49.337Z,8.88
2023-05-21T19:09:16.190Z,10.43
2023-05-21T19:11:43.142Z,10.38
2023-05-21T19:14:09.926Z,11.77
2023-05-21T19:16:36.798Z,6.95
2023-05-21T19:19:04.378Z,10.63
2023-05-21T19:21:31.561Z,10.13
2023-05-21T19:23:58.649Z,10.25
2023-05-21T19:26:25.503Z,10.15
2023-05-21T19:28:53.797Z,10.77
2023-05-21T19:31:22.056Z,10.50
2023-05-21T19:33:49.239Z,8.10
2023-05-21T19:36:16.115Z,8.73
2023-05-21T19:38:48.336Z,11.52
2023-05-21T19:41:19.298Z,11.40
2023-05-21T19:43:46.223Z,11.90
2023-05-21T19:46:14.309Z,9.63
2023-05-21T19:48:42.083Z,14.48
2023-05-21T19:51:08.821Z,10.15
2023-05-21T19:53:36.027Z,10.55
2023-05-21T19:56:02.749Z,10.55
2023-05-21T19:58:30.492Z,8.93
2023-05-21T20:00:59.325Z,12.32
2023-05-21T20:03:35.613Z,10.65
2023-05-21T20:06:03.305Z,14.93
2023-05-21T20:08:30.139Z,11.82
2023-05-21T20:10:56.884Z,9.77
2023-05-21T20:13:24.485Z,10.57
2023-05-21T20:15:51.449Z,10.25
2023-05-21T20:18:20.042Z,12.00
2023-05-21T20:20:46.878Z,8.57
2023-05-21T20:23:13.817Z,11.40
2023-05-21T20:25:40.541Z,10.95
2023-05-21T20:28:08.664Z,10.40
2023-05-21T20:30:52.721Z,10.55
2023-05-21T20:33:20.269Z,13.15
2023-05-21T20:35:46.962Z,11.57
2023-05-21T20:38:16.103Z,13.35
2023-05-21T20:40:43.927Z,13.05
2023-05-21T20:43:18.670Z,10.13
2023-05-21T20:45:46.185Z,10.27
2023-05-21T20:48:14.740Z,11.25
2023-05-21T20:50:41.825Z,11.23
2023-05-21T20:53:08.657Z,12.65
2023-05-21T20:55:38.666Z,12.00
2023-05-21T20:58:05.774Z,10.63
2023-05-21T21:00:33.468Z,10.18
2023-05-21T21:03:03.889Z,15.45
2023-05-21T21:05:31.046Z,10.77
2023-05-21T21:08:02.446Z,14.27
2023-05-21T21:10:29.284Z,10.38
2023-05-21T21:12:56.029Z,11.25
2023-05-21T21:15:22.721Z,11.30
2023-05-21T21:17:49.537Z,10.65
2023-05-21T21:20:17.821Z,10.05
2023-05-21T21:22:45.560Z,10.88
2023-05-21T21:25:14.014Z,14.30
2023-05-21T21:27:40.820Z,12.25
2023-05-21T21:30:08.126Z,11.90
2023-05-21T21:32:35.191Z,11.05
2023-05-21T21:35:01.974Z,11.43
2023-05-21T21:37:29.635Z,10.43
2023-05-21T21:39:56.471Z,10.43
2023-05-21T21:42:23.244Z,14.70
2023-05-21T21:44:49.937Z,14.82
2023-05-21T21:47:16.571Z,11.80
2023-05-21T21:49:43.274Z,12.40
2023-05-21T21:52:10.893Z,10.93
2023-05-21T21:54:37.621Z,11.63
2023-05-21T21:57:04.585Z,12.75
2023-05-21T21:59:31.275Z,11.55
2023-05-21T22:01:58.654Z,11.40
2023-05-21T22:04:25.374Z,11.70
2023-05-21T22:06:53.852Z,11.07
2023-05-21T22:09:22.565Z,13.93
2023-05-21T22:11:49.540Z,12.73
2023-05-21T22:14:18.305Z,11.82
2023-05-21T22:16:45.282Z,13.45
2023-05-21T22:19:13.119Z,14.63
2023-05-21T22:21:39.878Z,15.70
2023-05-21T22:24:09.492Z,11.88
2023-05-21T22:26:40.289Z,12.82
2023-05-21T22:29:06.990Z,13.80
2023-05-21T22:31:33.781Z,11.68
2023-05-21T22:34:00.621Z,11.02
2023-05-21T22:36:27.913Z,13.40
2023-05-21T22:38:55.091Z,13.32
2023-05-21T22:41:22.893Z,12.43
2023-05-21T22:43:49.606Z,10.60
2023-05-21T22:46:16.289Z,11.40
2023-05-21T22:48:46.166Z,13.73
2023-05-21T22:51:14.120Z,11.45
2023-05-21T22:53:41.468Z,12.55
2023-05-21T22:56:08.216Z,12.07
2023-05-21T22:58:35.013Z,11.65
2023-05-21T23:01:01.770Z,10.77
2023-05-21T23:03:28.548Z,12.00
2023-05-21T23:05:55.262Z,11.75
2023-05-21T23:08:21.966Z,10.88
2023-05-21T23:10:48.661Z,12.10
2023-05-21T23:13:15.445Z,12.63
2023-05-21T23:15:43.797Z,12.38
2023-05-21T23:18:11.491Z,13.43
2023-05-21T23:20:40.998Z,12.82
2023-05-21T23:23:08.167Z,13.18
2023-05-21T23:25:35.590Z,12.15
2023-05-21T23:28:03.439Z,12.90
2023-05-21T23:30:30.178Z,14.00
2023-05-21T23:32:57.137Z,12.70
2023-05-21T23:35:23.817Z,19.48
2023-05-21T23:37:50.505Z,13.80
2023-05-21T23:40:17.379Z,13.57
2023-05-21T23:42:44.212Z,13.15
2023-05-21T23:45:11.514Z,12.68
2023-05-21T23:47:38.332Z,12.10
2023-05-21T23:50:05.969Z,13.23
2023-05-21T23:52:32.779Z,12.40
2023-05-21T23:54:59.437Z,14.10
2023-05-21T23:57:26.107Z,13.52
2023-05-21T23:59:52.813Z,13.65
